createdAt,value
2018-06-05T00:04:38.972Z,17.60
2018-06-05T00:09:42.853Z,18.93
2018-06-05T00:14:46.701Z,18.80
2018-06-05T00:19:50.794Z,18.10
2018-06-05T00:24:54.906Z,20.70
2018-06-05T00:29:58.982Z,20.10
2018-06-05T00:35:02.810Z,19.53
2018-06-05T00:40:06.930Z,20.30
2018-06-05T00:45:10.803Z,21.20
2018-06-05T00:50:14.681Z,21.40
2018-06-05T00:55:18.518Z,21.57
2018-06-05T01:00:22.603Z,21.23
2018-06-05T01:05:26.440Z,23.12
2018-06-05T01:10:30.617Z,24.60
2018-06-05T01:15:34.484Z,25.15
2018-06-05T01:20:38.630Z,23.80
2018-06-05T01:25:42.453Z,23.25
2018-06-05T01:30:46.280Z,25.17
2018-06-05T01:35:50.108Z,24.53
2018-06-05T01:40:53.980Z,24.73
2018-06-05T01:45:58.110Z,24.20
2018-06-05T01:51:02.016Z,24.00
2018-06-05T01:56:05.862Z,24.33
2018-06-05T02:01:09.841Z,24.30
2018-06-05T02:06:13.713Z,26.37
2018-06-05T02:11:17.638Z,26.00
2018-06-05T02:16:21.502Z,26.93
2018-06-05T02:21:25.960Z,26.30
2018-06-05T02:26:29.905Z,26.20
2018-06-05T02:31:34.050Z,27.40
2018-06-05T02:36:38.184Z,26.53
2018-06-05T02:41:42.059Z,26.87
2018-06-05T02:46:46.154Z,27.03
2018-06-05T02:51:50.003Z,26.30
2018-06-05T02:56:54.084Z,29.60
2018-06-05T03:01:57.951Z,27.70
2018-06-05T03:07:02.055Z,29.80
2018-06-05T03:12:05.897Z,31.77
2018-06-05T03:17:09.769Z,32.00
2018-06-05T03:22:13.878Z,33.10
2018-06-05T03:27:17.785Z,32.53
2018-06-05T03:32:21.874Z,30.20
2018-06-05T03:37:25.724Z,33.07
2018-06-05T03:42:29.871Z,31.50
2018-06-05T03:47:33.742Z,32.93
2018-06-05T03:52:37.890Z,34.00
2018-06-05T03:57:41.779Z,35.23
2018-06-05T04:02:45.630Z,35.87
2018-06-05T04:07:49.543Z,36.10
2018-06-05T04:12:53.378Z,34.07
2018-06-05T04:17:57.194Z,36.20
2018-06-05T04:23:01.288Z,34.97
2018-06-05T04:28:05.135Z,36.40
2018-06-05T04:33:11.331Z,34.70
2018-06-05T04:38:15.142Z,35.10
2018-06-05T04:43:18.937Z,34.83
2018-06-05T04:48:22.737Z,35.20
2018-06-05T04:53:27.424Z,34.60
2018-06-05T04:58:31.597Z,34.00
2018-06-05T05:03:35.401Z,35.80
2018-06-05T05:08:39.338Z,36.23
2018-06-05T05:13:43.411Z,39.27
2018-06-05T05:18:47.473Z,35.80
2018-06-05T05:23:51.579Z,36.20
2018-06-05T05:28:55.658Z,35.27
2018-06-05T05:33:59.472Z,34.67
2018-06-05T05:39:03.438Z,36.10
2018-06-05T05:44:07.266Z,36.23
2018-06-05T05:49:11.157Z,36.13
2018-06-05T05:54:14.983Z,35.97
2018-06-05T05:59:19.279Z,34.00
2018-06-05T06:04:23.072Z,35.60
2018-06-05T06:09:26.880Z,34.40
2018-06-05T06:14:31.022Z,33.15
2018-06-05T06:19:35.076Z,32.13
2018-06-05T06:24:38.977Z,32.70
2018-06-05T06:29:43.044Z,32.47
2018-06-05T06:34:46.964Z,33.70
2018-06-05T06:39:50.782Z,34.17
2018-06-05T06:44:54.627Z,33.27
2018-06-05T06:49:58.673Z,32.67
2018-06-05T06:55:02.520Z,32.07
2018-06-05T07:00:06.281Z,31.93
2018-06-05T07:05:10.123Z,31.30
2018-06-05T07:10:13.925Z,31.03
2018-06-05T07:15:18.000Z,31.00
2018-06-05T07:20:22.058Z,30.57
2018-06-05T07:25:25.906Z,30.90
2018-06-05T07:30:30.024Z,30.07
2018-06-05T07:35:34.083Z,28.57
2018-06-05T07:40:37.894Z,28.73
2018-06-05T07:45:41.712Z,29.57
2018-06-05T07:50:45.754Z,27.13
2018-06-05T07:55:49.577Z,27.87
2018-06-05T08:00:53.366Z,27.67
2018-06-05T08:05:57.183Z,27.10
2018-06-05T08:11:01.234Z,25.03
2018-06-05T08:16:05.450Z,24.80
2018-06-05T08:21:09.245Z,24.23
2018-06-05T08:26:13.354Z,24.80
2018-06-05T08:31:17.164Z,23.57
2018-06-05T08:36:20.961Z,23.17
2018-06-05T08:41:24.761Z,21.27
2018-06-05T08:46:28.829Z,20.40
2018-06-05T08:51:32.670Z,19.90
2018-06-05T08:56:36.477Z,18.37
2018-06-05T09:01:40.305Z,19.47
2018-06-05T09:06:44.229Z,17.63
2018-06-05T09:11:48.071Z,15.90
2018-06-05T09:16:51.906Z,15.07
2018-06-05T09:21:55.975Z,15.90
2018-06-05T09:26:59.798Z,14.75
2018-06-05T09:32:03.716Z,15.40
2018-06-05T09:37:07.647Z,13.60
2018-06-05T09:42:11.726Z,14.57
2018-06-05T09:47:15.816Z,13.00
2018-06-05T09:52:19.661Z,12.20
2018-06-05T09:57:23.700Z,11.23
2018-06-05T10:02:27.754Z,13.63
2018-06-05T10:07:31.591Z,11.37
2018-06-05T10:12:35.658Z,11.60
2018-06-05T10:17:39.731Z,11.10
2018-06-05T10:22:43.520Z,12.20
2018-06-05T10:27:47.341Z,12.80
2018-06-05T10:32:51.139Z,13.57
2018-06-05T10:37:54.961Z,12.93
2018-06-05T10:42:59.030Z,13.90
2018-06-05T10:48:03.097Z,13.67
2018-06-05T10:53:08.016Z,14.80
2018-06-05T10:58:12.086Z,13.40
2018-06-05T11:03:16.135Z,14.30
2018-06-05T11:08:19.974Z,15.97
2018-06-05T11:13:24.054Z,17.73
2018-06-05T11:18:28.105Z,15.43
2018-06-05T11:23:31.925Z,19.00
2018-06-05T11:28:36.018Z,18.83
2018-06-05T11:33:46.692Z,18.63
2018-06-05T11:38:50.517Z,18.93
2018-06-05T11:43:54.329Z,18.17
2018-06-05T11:48:58.132Z,19.70
2018-06-05T11:54:02.189Z,21.27
2018-06-05T11:59:06.846Z,20.30
2018-06-05T12:04:10.634Z,21.07
2018-06-05T12:09:14.804Z,21.10
2018-06-05T12:14:18.633Z,21.47
2018-06-05T12:19:22.457Z,23.87
2018-06-05T12:24:26.249Z,21.87
2018-06-05T12:29:30.302Z,23.53
2018-06-05T12:34:34.096Z,23.40
2018-06-05T12:39:38.197Z,22.87
2018-06-05T12:44:42.019Z,21.63
2018-06-05T12:49:45.841Z,23.47
2018-06-05T12:54:49.685Z,23.17
2018-06-05T12:59:53.565Z,23.40
2018-06-05T13:04:57.365Z,23.90
2018-06-05T13:10:01.195Z,23.17
2018-06-05T13:15:05.023Z,22.43
2018-06-05T13:20:09.672Z,23.53
2018-06-05T13:25:13.514Z,27.33
2018-06-05T13:30:17.330Z,26.17
2018-06-05T13:35:21.165Z,27.07
2018-06-05T13:40:24.993Z,26.43
2018-06-05T13:45:28.929Z,25.53
2018-06-05T13:50:32.741Z,24.17
2018-06-05T13:55:36.568Z,25.03
2018-06-05T14:00:40.381Z,24.60
2018-06-05T14:05:44.196Z,21.27
2018-06-05T14:10:48.014Z,22.67
2018-06-05T14:15:51.885Z,21.57
2018-06-05T14:20:55.923Z,21.63
2018-06-05T14:25:59.753Z,22.70
2018-06-05T14:31:03.590Z,22.30
2018-06-05T14:36:07.412Z,19.87
2018-06-05T14:41:11.260Z,19.70
2018-06-05T14:46:15.354Z,20.97
2018-06-05T14:51:19.173Z,19.57
2018-06-05T14:56:22.993Z,19.23
2018-06-05T15:01:27.051Z,19.37
2018-06-05T15:06:31.118Z,19.13
2018-06-05T15:11:34.927Z,17.87
2018-06-05T15:16:38.856Z,17.73
2018-06-05T15:21:42.665Z,20.43
2018-06-05T15:26:46.519Z,19.20
2018-06-05T15:31:50.324Z,19.43
2018-06-05T15:36:54.139Z,18.27
2018-06-05T15:41:58.221Z,18.35
2018-06-05T15:47:02.053Z,17.30
2018-06-05T15:52:05.889Z,20.60
2018-06-05T15:57:09.717Z,15.53
2018-06-05T16:02:13.535Z,16.20
2018-06-05T16:07:17.342Z,21.83
2018-06-05T16:12:21.241Z,23.03
2018-06-05T16:17:25.109Z,25.83
2018-06-05T16:22:28.963Z,26.13
2018-06-05T16:27:32.804Z,25.13
2018-06-05T16:32:36.899Z,25.03
2018-06-05T16:37:40.966Z,26.10
2018-06-05T16:42:45.031Z,22.40
2018-06-05T16:47:49.115Z,22.80
2018-06-05T16:52:53.252Z,24.20
2018-06-05T16:57:57.067Z,24.87
2018-06-05T17:03:01.150Z,21.10
2018-06-05T17:08:04.972Z,22.00
2018-06-05T17:13:08.821Z,18.83
2018-06-05T17:18:12.641Z,18.57
2018-06-05T17:23:16.466Z,18.93
2018-06-05T17:28:20.276Z,19.80
2018-06-05T17:33:24.089Z,19.60
2018-06-05T17:38:27.911Z,17.80
2018-06-05T17:43:31.750Z,18.40
2018-06-05T17:48:35.582Z,19.60
2018-06-05T17:53:39.437Z,18.47
2018-06-05T17:58:43.534Z,19.23
2018-06-05T18:03:47.358Z,19.40
2018-06-05T18:08:51.185Z,19.47
2018-06-05T18:13:55.009Z,21.23
2018-06-05T18:18:58.850Z,22.70
2018-06-05T18:24:02.785Z,24.20
2018-06-05T18:29:06.853Z,23.50
2018-06-05T18:34:10.690Z,24.27
2018-06-05T18:39:14.563Z,25.77
2018-06-05T18:44:18.394Z,25.93
2018-06-05T18:49:22.254Z,25.73
2018-06-05T18:54:26.074Z,27.07
2018-06-05T18:59:29.946Z,27.23
2018-06-05T19:04:33.926Z,26.73
2018-06-05T19:09:38.846Z,27.70
2018-06-05T19:14:42.665Z,27.43
2018-06-05T19:19:46.551Z,27.40
2018-06-05T19:24:50.362Z,26.87
2018-06-05T19:29:54.440Z,30.73
2018-06-05T19:34:58.479Z,30.17
2018-06-05T19:40:02.275Z,32.67
2018-06-05T19:45:06.097Z,31.10
2018-06-05T19:50:10.135Z,32.17
2018-06-05T19:55:13.958Z,30.77
2018-06-05T20:00:17.773Z,30.93
2018-06-05T20:05:21.826Z,28.00
2018-06-05T20:10:25.614Z,28.97
2018-06-05T20:15:29.692Z,32.33
2018-06-05T20:20:33.664Z,31.00
2018-06-05T20:25:37.981Z,32.53
2018-06-05T20:30:42.000Z,33.00
2018-06-05T20:35:45.806Z,32.73
2018-06-05T20:40:49.866Z,34.10
2018-06-05T20:45:53.684Z,31.60
2018-06-05T20:50:57.763Z,32.13
2018-06-05T20:56:01.840Z,32.67
2018-06-05T21:01:05.693Z,34.67
2018-06-05T21:06:09.551Z,33.80
2018-06-05T21:11:13.363Z,33.93
2018-06-05T21:16:17.463Z,33.77
2018-06-05T21:21:21.525Z,33.18
2018-06-05T21:26:25.657Z,33.23
2018-06-05T21:31:29.723Z,31.90
2018-06-05T21:36:33.593Z,33.33
2018-06-05T21:41:37.922Z,30.20
2018-06-05T21:46:41.749Z,34.07
2018-06-05T21:51:45.564Z,31.93
2018-06-05T21:56:49.626Z,33.13
2018-06-05T22:01:53.688Z,33.30
2018-06-05T22:06:57.754Z,31.40
2018-06-05T22:12:01.590Z,32.27
2018-06-05T22:17:05.652Z,31.53
2018-06-05T22:22:09.701Z,31.53
2018-06-05T22:27:13.797Z,33.77
2018-06-05T22:32:17.828Z,31.40
2018-06-05T22:37:21.718Z,32.13
2018-06-05T22:42:25.786Z,31.67
2018-06-05T22:47:29.606Z,33.33
2018-06-05T22:52:33.404Z,33.33
2018-06-05T22:57:37.266Z,34.03
2018-06-05T23:02:41.076Z,34.50
2018-06-05T23:07:44.914Z,33.50
2018-06-05T23:12:48.757Z,34.23
2018-06-05T23:17:52.837Z,34.20
2018-06-05T23:22:56.882Z,36.37
2018-06-05T23:28:07.549Z,35.17
2018-06-05T23:33:11.371Z,35.13
2018-06-05T23:38:15.192Z,34.93
2018-06-05T23:43:19.015Z,35.73
2018-06-05T23:48:23.083Z,35.07
2018-06-05T23:53:27.702Z,34.87
2018-06-05T23:58:31.512Z,34.50
